TimeEDT,TemperatureF,Dew PointF,Humidity,Sea Level PressureIn,VisibilityMPH,Wind Direction,Wind SpeedMPH,Gust SpeedMPH,PrecipitationIn,Events,Conditions,WindDirDegrees,DateUTC
12:56 AM,27.0,19.9,75,30.15,10.0,WNW,6.9,-,N/A,,Clear,300,2013-04-06 04:56:00
1:56 AM,26.1,19.9,78,30.17,10.0,WNW,5.8,-,N/A,,Clear,300,2013-04-06 05:56:00
2:56 AM,25.0,19.0,78,30.17,10.0,NW,6.9,-,N/A,,Clear,320,2013-04-06 06:56:00
3:56 AM,25.0,19.0,78,30.18,10.0,NNW,4.6,-,N/A,,Clear,330,2013-04-06 07:56:00
4:56 AM,24.1,18.0,77,30.19,10.0,NNW,4.6,-,N/A,,Clear,340,2013-04-06 08:56:00
5:56 AM,24.1,17.1,75,30.22,10.0,North,3.5,-,N/A,,Clear,10,2013-04-06 09:56:00
6:56 AM,21.9,16.0,78,30.25,10.0,NNE,4.6,-,N/A,,Clear,20,2013-04-06 10:56:00
7:56 AM,25.0,19.0,78,30.27,10.0,East,5.8,-,N/A,,Clear,80,2013-04-06 11:56:00
8:56 AM,28.0,17.1,63,30.30,10.0,Variable,4.6,-,N/A,,Clear,0,2013-04-06 12:56:00
9:56 AM,30.9,16.0,54,30.31,10.0,Variable,6.9,-,N/A,,Clear,0,2013-04-06 13:56:00
10:56 AM,34.0,14.0,44,30.30,10.0,SE,6.9,-,N/A,,Clear,140,2013-04-06 14:56:00
11:56 AM,37.9,10.9,33,30.30,10.0,East,6.9,-,N/A,,Clear,90,2013-04-06 15:56:00
12:56 PM,41.0,10.0,28,30.27,10.0,Variable,5.8,-,N/A,,Clear,0,2013-04-06 16:56:00
1:56 PM,45.0,10.0,24,30.25,10.0,Variable,4.6,-,N/A,,Clear,0,2013-04-06 17:56:00
2:56 PM,46.9,8.1,21,30.21,10.0,South,6.9,-,N/A,,Clear,180,2013-04-06 18:56:00
3:56 PM,48.9,6.1,18,30.18,10.0,SSW,10.4,-,N/A,,Clear,200,2013-04-06 19:56:00
4:56 PM,50.0,8.1,18,30.16,10.0,South,9.2,-,N/A,,Clear,170,2013-04-06 20:56:00
5:56 PM,51.1,10.0,19,30.16,10.0,SSE,5.8,-,N/A,,Clear,160,2013-04-06 21:56:00
6:56 PM,50.0,10.0,20,30.16,10.0,SE,4.6,16.1,N/A,,Clear,140,2013-04-06 22:56:00
7:56 PM,48.0,9.0,21,30.14,10.0,SSE,5.8,-,N/A,,Clear,150,2013-04-06 23:56:00
8:56 PM,46.0,12.0,25,30.14,10.0,SE,8.1,-,N/A,,Clear,130,2013-04-07 00:56:00
9:56 PM,46.0,12.9,26,30.12,10.0,SE,8.1,-,N/A,,Overcast,140,2013-04-07 01:56:00
10:56 PM,44.1,14.0,30,30.12,10.0,ESE,8.1,-,N/A,,Scattered Clouds,120,2013-04-07 02:56:00
11:56 PM,44.1,15.1,31,30.09,10.0,SE,9.2,-,N/A,,Overcast,140,2013-04-07 03:56:00